Time;durP1;ratioP1;P1;durP2;ratioP2;P2;SDS_P1;SDS_P2;PMS_P1;PMS_P2;Temp;Humidity;BMP_temperature;BMP_pressure;BME280_temperature;BME280_humidity;BME280_pressure;Samples;Min_cycle;Max_cycle;Signal;HPM_P1;HPM_P2
2022/04/04 00:00:13;;;;;;;1.33;1.33;;;4.50;99.90;;;;;;4985650;28;20189;-87
2022/04/04 00:02:38;;;;;;;2.20;2.20;;;4.50;99.90;;;;;;4984751;28;20189;-87
2022/04/04 00:05:05;;;;;;;2.63;2.63;;;4.50;99.90;;;;;;4986429;28;20551;-86
2022/04/04 00:07:31;;;;;;;0.40;0.40;;;4.50;99.90;;;;;;4992973;28;20495;-87
2022/04/04 00:09:56;;;;;;;0.50;0.50;;;4.50;99.90;;;;;;4992336;28;20455;-87
2022/04/04 00:12:22;;;;;;;0.40;0.40;;;4.50;99.90;;;;;;4987608;28;20246;-87
2022/04/04 00:14:48;;;;;;;0.90;0.90;;;4.50;99.90;;;;;;4989504;28;20752;-89
2022/04/04 00:17:14;;;;;;;1.00;1.00;;;4.50;99.90;;;;;;4984719;28;20188;-88
2022/04/04 00:19:40;;;;;;;1.60;1.60;;;4.50;99.90;;;;;;4988768;28;20470;-87
2022/04/04 00:22:06;;;;;;;2.03;2.03;;;4.50;99.90;;;;;;4988163;28;22219;-88
2022/04/04 00:24:32;;;;;;;1.50;1.50;;;4.50;99.90;;;;;;4990723;28;20525;-87
2022/04/04 00:26:58;;;;;;;0.93;0.93;;;4.60;99.90;;;;;;4990284;28;21165;-88
2022/04/04 00:29:25;;;;;;;1.47;1.47;;;4.50;99.90;;;;;;4982421;28;20453;-87
2022/04/04 00:31:51;;;;;;;0.80;0.80;;;4.50;99.90;;;;;;4980543;28;20642;-88
2022/04/04 00:34:16;;;;;;;1.83;1.83;;;4.50;99.90;;;;;;4987818;28;20615;-87
2022/04/04 00:36:43;;;;;;;0.80;0.80;;;4.40;99.90;;;;;;4984825;28;20458;-89
2022/04/04 00:39:15;;;;;;;0.40;0.40;;;4.50;99.90;;;;;;4995755;28;20197;-88
2022/04/04 00:41:44;;;;;;;0.40;0.40;;;4.50;99.90;;;;;;4991354;28;20850;-89
2022/04/04 00:44:10;;;;;;;0.40;0.40;;;4.50;99.90;;;;;;4987841;28;20464;-88
2022/04/04 00:46:45;;;;;;;0.40;0.40;;;4.50;99.90;;;;;;4989235;28;20455;-87
2022/04/04 00:49:11;;;;;;;0.50;0.50;;;4.50;99.90;;;;;;4984131;28;20455;-88
2022/04/04 00:51:37;;;;;;;0.40;0.40;;;4.60;99.90;;;;;;4988983;28;20561;-89
2022/04/04 00:54:03;;;;;;;0.40;0.40;;;4.60;99.90;;;;;;4983558;28;21116;-87
2022/04/04 00:56:32;;;;;;;0.50;0.50;;;4.60;99.90;;;;;;5001202;28;20199;-89
2022/04/04 00:58:58;;;;;;;12.90;12.50;;;4.50;99.90;;;;;;5003337;28;20986;-88
2022/04/04 01:01:24;;;;;;;8.27;8.03;;;4.60;99.90;;;;;;5004898;28;20490;-87
2022/04/04 01:03:50;;;;;;;0.80;0.80;;;4.50;99.90;;;;;;5006398;28;20479;-87
2022/04/04 01:06:16;;;;;;;0.80;0.80;;;4.50;99.90;;;;;;5002401;28;20198;-87
2022/04/04 01:08:42;;;;;;;0.80;0.77;;;4.50;99.90;;;;;;5013939;28;21007;-88
2022/04/04 01:11:08;;;;;;;0.87;0.80;;;4.50;99.90;;;;;;4992182;28;20455;-87
2022/04/04 01:13:33;;;;;;;0.80;0.80;;;4.50;99.90;;;;;;5009037;28;20203;-87
2022/04/04 01:15:59;;;;;;;0.87;0.80;;;4.50;99.90;;;;;;5000970;28;20972;-88
2022/04/04 01:18:24;;;;;;;0.93;0.83;;;4.50;99.90;;;;;;4990470;28;20185;-88
2022/04/04 01:20:50;;;;;;;0.80;0.70;;;4.60;99.90;;;;;;5003191;28;20790;-87
2022/04/04 01:23:23;;;;;;;0.90;0.80;;;4.60;99.90;;;;;;5006883;28;20676;-88
2022/04/04 01:25:48;;;;;;;0.90;0.80;;;4.50;99.90;;;;;;5010635;28;20193;-86
2022/04/04 01:28:17;;;;;;;0.80;0.70;;;4.50;99.90;;;;;;5008492;28;20458;-89
2022/04/04 01:30:47;;;;;;;1.00;0.90;;;4.50;99.90;;;;;;5006014;28;20267;-88
2022/04/04 01:33:13;;;;;;;1.00;0.90;;;4.50;99.90;;;;;;4991362;28;20443;-88
2022/04/04 01:35:39;;;;;;;0.87;0.80;;;4.50;99.90;;;;;;5014082;28;20482;-88
2022/04/04 01:38:05;;;;;;;0.90;0.80;;;4.50;99.90;;;;;;4989705;28;20274;-89
2022/04/04 01:40:30;;;;;;;0.80;0.80;;;4.50;99.90;;;;;;4981638;28;20481;-87
2022/04/04 01:42:56;;;;;;;0.80;0.70;;;4.50;99.90;;;;;;4992041;28;20185;-88
2022/04/04 01:48:09;;;;;;;0.90;0.80;;;4.50;99.90;;;;;;5009553;28;20562;-88
2022/04/04 01:50:39;;;;;;;1.00;0.90;;;4.50;99.90;;;;;;4968403;28;21227;-89
2022/04/04 01:56:13;;;;;;;1.43;1.33;;;4.40;99.90;;;;;;4969482;28;1039938;-88
2022/04/04 01:58:43;;;;;;;0.90;0.80;;;4.40;99.90;;;;;;4997056;28;20199;-88
2022/04/04 02:01:11;;;;;;;0.90;0.80;;;4.30;99.90;;;;;;5015308;28;20446;-89
2022/04/04 02:03:38;;;;;;;0.83;0.80;;;4.30;99.90;;;;;;4986279;28;20447;-88
2022/04/04 02:06:04;;;;;;;0.80;0.80;;;4.30;99.90;;;;;;5002124;28;20439;-89
2022/04/04 02:08:31;;;;;;;0.87;0.80;;;4.30;99.90;;;;;;5005269;28;20443;-87
2022/04/04 02:10:57;;;;;;;1.13;1.03;;;4.30;99.90;;;;;;5011170;28;20443;-88
2022/04/04 02:13:25;;;;;;;1.57;1.43;;;4.30;99.90;;;;;;5006280;28;20455;-88
2022/04/04 02:15:55;;;;;;;0.90;0.80;;;4.20;99.90;;;;;;5008523;28;20487;-88
2022/04/04 02:18:20;;;;;;;1.30;1.10;;;4.20;99.90;;;;;;5003822;28;20553;-88
2022/04/04 02:21:01;;;;;;;0.87;0.80;;;4.10;99.90;;;;;;5003546;28;21039;-88
2022/04/04 02:23:27;;;;;;;1.20;1.10;;;4.10;99.90;;;;;;5007157;28;20243;-88
2022/04/04 02:25:55;;;;;;;0.80;0.80;;;4.10;99.90;;;;;;4994135;28;20451;-88
2022/04/04 02:28:21;;;;;;;1.97;1.87;;;4.10;99.90;;;;;;5003536;28;20235;-89
2022/04/04 02:30:49;;;;;;;1.73;1.37;;;4.20;99.90;;;;;;4992738;28;20471;-88
2022/04/04 02:33:16;;;;;;;0.80;0.80;;;4.10;99.90;;;;;;5003771;28;20463;-88
2022/04/04 02:35:42;;;;;;;0.80;0.73;;;4.10;99.90;;;;;;5005733;28;20586;-88
2022/04/04 02:38:11;;;;;;;0.87;0.80;;;4.10;99.90;;;;;;4989942;28;20818;-88
2022/04/04 02:40:38;;;;;;;0.90;0.80;;;4.00;99.90;;;;;;5005574;28;20513;-87
2022/04/04 02:43:04;;;;;;;0.80;0.80;;;4.00;99.90;;;;;;4987209;28;20441;-90
2022/04/04 02:45:30;;;;;;;0.90;0.80;;;4.00;99.90;;;;;;5002800;28;20954;-88
2022/04/04 02:47:56;;;;;;;0.80;0.70;;;4.00;99.90;;;;;;5006254;28;20439;-87
2022/04/04 02:50:25;;;;;;;1.00;0.90;;;4.00;99.90;;;;;;5004188;28;20640;-88
2022/04/04 02:52:50;;;;;;;1.33;1.10;;;3.90;99.90;;;;;;5006397;28;20443;-88
2022/04/04 02:58:00;;;;;;;0.80;0.70;;;3.90;99.90;;;;;;5011571;28;20547;-90
2022/04/04 03:00:26;;;;;;;0.90;0.83;;;3.90;99.90;;;;;;5006121;28;20455;-88
2022/04/04 03:02:53;;;;;;;1.27;1.17;;;3.90;99.90;;;;;;5008708;28;20184;-89
2022/04/04 03:05:19;;;;;;;0.90;0.80;;;3.90;99.90;;;;;;5007694;28;20211;-88
2022/04/04 03:07:45;;;;;;;0.80;0.80;;;3.90;99.90;;;;;;5013130;28;21117;-89
2022/04/04 03:10:12;;;;;;;1.30;1.20;;;3.90;99.90;;;;;;5017112;28;20649;-87
2022/04/04 03:12:45;;;;;;;0.80;0.80;;;3.90;99.90;;;;;;4987803;28;20465;-88
2022/04/04 03:15:13;;;;;;;6.83;2.30;;;3.90;99.90;;;;;;5007610;28;20841;-88
2022/04/04 03:17:40;;;;;;;0.50;0.50;;;3.90;99.90;;;;;;4981915;28;20447;-89
2022/04/04 03:20:10;;;;;;;4.53;4.27;;;3.90;99.90;;;;;;4989578;28;20451;-89
2022/04/04 03:22:37;;;;;;;1.33;1.33;;;3.90;99.90;;;;;;5000080;28;21001;-89
2022/04/04 03:25:03;;;;;;;0.47;0.47;;;3.90;99.90;;;;;;4990176;28;20443;-88
2022/04/04 03:27:29;;;;;;;1.67;1.67;;;3.90;99.90;;;;;;4989187;28;20435;-90
2022/04/04 03:29:54;;;;;;;28.87;27.67;;;3.80;99.90;;;;;;5004331;28;20466;-88
2022/04/04 03:32:20;;;;;;;5.00;4.80;;;3.80;99.90;;;;;;5007301;28;20188;-88
2022/04/04 03:34:45;;;;;;;0.80;0.80;;;3.80;99.90;;;;;;4990642;28;20250;-89
2022/04/04 03:37:11;;;;;;;1.27;1.17;;;3.80;99.90;;;;;;5010271;28;20200;-88
2022/04/04 03:39:37;;;;;;;1.00;0.90;;;3.80;99.90;;;;;;5009185;28;20275;-88
2022/04/04 03:42:03;;;;;;;1.20;1.10;;;3.70;99.90;;;;;;5010330;28;21007;-88
2022/04/04 03:44:28;;;;;;;0.87;0.83;;;3.70;99.90;;;;;;5002772;28;20192;-89
2022/04/04 03:46:54;;;;;;;0.80;0.80;;;3.70;99.90;;;;;;5002880;28;20223;-90
2022/04/04 03:49:19;;;;;;;0.87;0.80;;;3.80;99.90;;;;;;5006150;28;20190;-90
2022/04/04 03:51:45;;;;;;;1.10;1.00;;;3.80;99.90;;;;;;5012307;28;20223;-89
2022/04/04 03:54:10;;;;;;;0.97;0.87;;;3.70;99.90;;;;;;5006553;28;20215;-87
2022/04/04 03:56:36;;;;;;;0.80;0.80;;;3.80;99.90;;;;;;4990331;28;20887;-89
2022/04/04 03:59:01;;;;;;;1.00;0.90;;;3.70;99.90;;;;;;5007867;28;20742;-88
2022/04/04 04:01:29;;;;;;;1.57;1.47;;;3.80;99.90;;;;;;5004812;28;20184;-89
2022/04/04 04:03:55;;;;;;;1.00;1.00;;;3.80;99.90;;;;;;5005633;28;20180;-89
2022/04/04 04:06:21;;;;;;;1.10;1.00;;;3.70;99.90;;;;;;5004354;28;20443;-88
2022/04/04 04:08:46;;;;;;;0.90;0.80;;;3.80;99.90;;;;;;4983049;28;20184;-87
2022/04/04 04:11:14;;;;;;;0.80;0.70;;;3.80;99.90;;;;;;5008033;28;20184;-89
2022/04/04 04:13:41;;;;;;;1.00;0.90;;;3.70;99.90;;;;;;5000696;28;20188;-89
2022/04/04 04:16:09;;;;;;;0.80;0.70;;;3.80;99.90;;;;;;4988313;28;20482;-87
2022/04/04 04:18:38;;;;;;;1.73;1.47;;;3.70;99.90;;;;;;4989997;28;20458;-89
2022/04/04 04:21:05;;;;;;;0.97;0.87;;;3.70;99.90;;;;;;5004799;28;20461;-88
2022/04/04 04:23:30;;;;;;;1.43;1.33;;;3.80;99.90;;;;;;5004425;28;20451;-88
2022/04/04 04:25:56;;;;;;;0.90;0.80;;;3.70;99.90;;;;;;5004600;28;20450;-88
2022/04/04 04:28:22;;;;;;;0.90;0.80;;;3.70;99.90;;;;;;5003493;28;20200;-89
2022/04/04 04:30:47;;;;;;;1.20;1.10;;;3.70;99.90;;;;;;5008629;28;20184;-89
2022/04/04 04:33:13;;;;;;;1.27;1.17;;;3.70;99.90;;;;;;5003839;28;20450;-88
2022/04/04 04:35:40;;;;;;;0.80;0.80;;;3.60;99.90;;;;;;4986033;28;20235;-88
2022/04/04 04:38:05;;;;;;;1.00;0.90;;;3.70;99.90;;;;;;5008291;28;20471;-90
2022/04/04 04:40:31;;;;;;;1.00;0.90;;;3.70;99.90;;;;;;5002883;28;20470;-88
2022/04/04 04:42:58;;;;;;;1.20;1.10;;;3.70;99.90;;;;;;5005796;28;20208;-89
2022/04/04 04:45:24;;;;;;;1.00;0.90;;;3.60;99.90;;;;;;5008291;28;20385;-88
2022/04/04 04:47:50;;;;;;;1.13;0.90;;;3.70;99.90;;;;;;5014328;28;21097;-88
2022/04/04 04:50:18;;;;;;;1.00;0.90;;;3.70;99.90;;;;;;4990463;28;20258;-89
2022/04/04 04:52:45;;;;;;;0.87;0.80;;;3.60;99.90;;;;;;5005361;28;20670;-88
2022/04/04 04:55:13;;;;;;;0.80;0.80;;;3.60;99.90;;;;;;5015063;28;21048;-87
2022/04/04 04:57:39;;;;;;;1.00;0.90;;;3.60;99.90;;;;;;4999247;28;20435;-88
2022/04/04 05:00:06;;;;;;;0.80;0.80;;;3.60;99.90;;;;;;5004098;28;20541;-87
2022/04/04 05:02:34;;;;;;;1.50;1.40;;;3.60;99.90;;;;;;5001415;28;20451;-90
2022/04/04 05:04:59;;;;;;;0.83;0.83;;;3.60;99.90;;;;;;5006644;28;20545;-88
2022/04/04 05:07:25;;;;;;;1.00;0.90;;;3.70;99.90;;;;;;5001445;28;20443;-89
2022/04/04 05:09:50;;;;;;;16.97;16.17;;;3.70;99.90;;;;;;5010968;28;21014;-89
2022/04/04 05:12:16;;;;;;;39.83;38.33;;;3.60;99.90;;;;;;5011033;28;20656;-89
2022/04/04 05:14:42;;;;;;;11.10;10.67;;;3.60;99.90;;;;;;5016490;28;20263;-90
2022/04/04 05:17:08;;;;;;;1.10;1.00;;;3.60;99.90;;;;;;5010176;28;20188;-91
2022/04/04 05:19:34;;;;;;;1.03;0.93;;;3.50;99.90;;;;;;5011363;28;20443;-90
2022/04/04 05:22:00;;;;;;;1.43;1.33;;;3.50;99.90;;;;;;4992699;28;20180;-89
2022/04/04 05:24:27;;;;;;;1.30;1.20;;;3.50;99.90;;;;;;5005592;28;20995;-90
2022/04/04 05:26:53;;;;;;;1.03;0.93;;;3.50;99.90;;;;;;4994769;28;20271;-91
2022/04/04 05:29:18;;;;;;;1.03;0.93;;;3.50;99.90;;;;;;5011050;28;20538;-89
2022/04/04 05:31:48;;;;;;;1.00;0.90;;;3.50;99.90;;;;;;4995259;28;20199;-89
2022/04/04 05:34:13;;;;;;;2.30;2.20;;;3.40;99.90;;;;;;5012803;28;20714;-89
2022/04/04 05:36:39;;;;;;;0.90;0.80;;;3.40;99.90;;;;;;5012791;28;20455;-90
2022/04/04 05:39:06;;;;;;;1.00;0.90;;;3.40;99.90;;;;;;5006468;28;20235;-89
2022/04/04 05:41:32;;;;;;;1.40;1.30;;;3.40;99.90;;;;;;5008903;28;20442;-91
2022/04/04 05:43:58;;;;;;;2.30;1.80;;;3.40;99.90;;;;;;5000886;28;20446;-90
2022/04/04 05:46:24;;;;;;;1.20;1.10;;;3.30;99.90;;;;;;5014906;28;20176;-91
2022/04/04 05:48:50;;;;;;;0.80;0.70;;;3.30;99.90;;;;;;5016806;28;20437;-89
2022/04/04 05:51:17;;;;;;;0.83;0.80;;;3.30;99.90;;;;;;5010642;28;20876;-89
2022/04/04 05:53:43;;;;;;;1.60;1.47;;;3.30;99.90;;;;;;5010336;28;20435;-90
2022/04/04 05:56:09;;;;;;;9.07;8.73;;;3.20;99.90;;;;;;5011684;28;20548;-88
2022/04/04 05:58:36;;;;;;;0.47;0.47;;;3.30;99.90;;;;;;5012052;28;20444;-89
2022/04/04 06:01:02;;;;;;;0.50;0.50;;;3.30;99.90;;;;;;4995220;28;20220;-90
2022/04/04 06:03:28;;;;;;;0.47;0.47;;;3.30;99.90;;;;;;5022599;28;20529;-91
2022/04/04 06:05:54;;;;;;;1.13;1.13;;;3.30;99.90;;;;;;5010937;28;20463;-91
2022/04/04 06:08:20;;;;;;;9.63;9.33;;;3.30;99.90;;;;;;5004288;28;21329;-90
2022/04/04 06:10:46;;;;;;;4.47;4.37;;;3.30;99.90;;;;;;5012644;28;20438;-91
2022/04/04 06:13:13;;;;;;;9.10;8.90;;;3.20;99.90;;;;;;5010755;28;20526;-89
2022/04/04 06:15:39;;;;;;;18.20;17.60;;;3.20;99.90;;;;;;5011598;28;20226;-91
2022/04/04 06:18:04;;;;;;;1.60;1.60;;;3.20;99.90;;;;;;5008721;28;20439;-88
2022/04/04 06:20:30;;;;;;;0.73;0.73;;;3.20;99.90;;;;;;5016528;28;20191;-91
2022/04/04 06:22:56;;;;;;;7.27;7.07;;;3.20;99.90;;;;;;4994762;28;20260;-90
2022/04/04 06:25:21;;;;;;;12.20;11.80;;;3.20;99.90;;;;;;5011549;28;20191;-90
2022/04/04 06:27:47;;;;;;;13.03;12.60;;;3.10;99.90;;;;;;5021832;28;20669;-93
2022/04/04 06:30:13;;;;;;;12.37;11.90;;;3.10;99.90;;;;;;4998087;28;20196;-91
2022/04/04 06:32:41;;;;;;;0.90;0.90;;;3.10;99.90;;;;;;4994605;28;20787;-90
2022/04/04 06:35:07;;;;;;;0.80;0.80;;;3.10;99.90;;;;;;5013862;28;20471;-92
2022/04/04 06:37:33;;;;;;;3.00;1.70;;;3.20;99.90;;;;;;5007254;28;20518;-91
2022/04/04 06:39:58;;;;;;;1.20;1.10;;;3.10;99.90;;;;;;5010171;28;20451;-89
2022/04/04 06:42:25;;;;;;;1.30;1.20;;;3.10;99.90;;;;;;5009935;28;20671;-91
2022/04/04 06:44:54;;;;;;;2.00;1.90;;;3.20;99.90;;;;;;5010092;28;20275;-89
2022/04/04 06:47:21;;;;;;;3.87;3.67;;;3.20;99.90;;;;;;5006254;28;20439;-91
2022/04/04 06:49:47;;;;;;;1.27;1.17;;;3.10;99.90;;;;;;4995710;28;20458;-92
2022/04/04 06:52:12;;;;;;;1.00;0.90;;;3.10;99.90;;;;;;4993344;28;20443;-92
2022/04/04 06:54:37;;;;;;;1.13;1.03;;;3.20;99.90;;;;;;5013468;28;20255;-90
2022/04/04 06:57:03;;;;;;;1.20;1.10;;;3.20;99.90;;;;;;5009214;28;20208;-91
2022/04/04 06:59:30;;;;;;;1.27;1.17;;;3.20;99.90;;;;;;5010279;28;20210;-87
2022/04/04 07:01:56;;;;;;;4.83;4.63;;;3.20;99.90;;;;;;5009989;28;20184;-88
2022/04/04 07:04:21;;;;;;;0.80;0.80;;;3.20;99.90;;;;;;5010017;28;20454;-90
2022/04/04 07:06:47;;;;;;;1.20;1.10;;;3.20;99.90;;;;;;5001112;28;20176;-90
2022/04/04 07:09:12;;;;;;;0.97;0.90;;;3.20;99.90;;;;;;5011272;28;20633;-93
2022/04/04 07:11:38;;;;;;;1.10;1.00;;;3.20;99.90;;;;;;5013618;28;20180;-90
2022/04/04 07:14:06;;;;;;;0.97;0.90;;;3.20;99.90;;;;;;5026606;28;20188;-92
2022/04/04 07:16:33;;;;;;;1.10;1.00;;;3.30;99.90;;;;;;5009924;28;20193;-92
2022/04/04 07:18:58;;;;;;;0.97;0.90;;;3.30;99.90;;;;;;5010010;28;20477;-91
2022/04/04 07:21:24;;;;;;;1.20;1.10;;;3.30;99.90;;;;;;5008844;28;20451;-92
2022/04/04 07:23:50;;;;;;;1.77;1.33;;;3.30;99.90;;;;;;5015538;28;20314;-90
2022/04/04 07:26:19;;;;;;;1.10;1.00;;;3.30;99.90;;;;;;5013372;28;20195;-89
2022/04/04 07:28:46;;;;;;;1.00;0.90;;;3.30;99.90;;;;;;4994705;28;20522;-90
2022/04/04 07:31:13;;;;;;;0.87;0.80;;;3.30;99.90;;;;;;4993977;28;20455;-89
2022/04/04 07:33:39;;;;;;;0.90;0.80;;;3.30;99.90;;;;;;5007394;28;20447;-90
2022/04/04 07:36:05;;;;;;;3.10;2.90;;;3.30;99.90;;;;;;4990648;28;20514;-88
2022/04/04 07:38:31;;;;;;;1.00;0.90;;;3.20;99.90;;;;;;4992506;28;20234;-89
2022/04/04 07:40:56;;;;;;;1.07;1.00;;;3.20;99.90;;;;;;5007645;28;20451;-87
2022/04/04 07:43:22;;;;;;;4.20;1.77;;;3.20;99.90;;;;;;4990977;28;20184;-89
2022/04/04 07:45:47;;;;;;;1.40;1.30;;;3.20;99.90;;;;;;4991394;28;20180;-91
2022/04/04 07:48:13;;;;;;;0.80;0.80;;;3.20;99.90;;;;;;4992934;28;20188;-88
2022/04/04 07:50:41;;;;;;;5.50;5.23;;;3.10;99.90;;;;;;4991137;28;20258;-87
2022/04/04 07:53:07;;;;;;;0.77;0.70;;;3.10;99.90;;;;;;4992799;28;20228;-86
2022/04/04 07:55:33;;;;;;;1.27;1.17;;;3.20;99.90;;;;;;5013495;28;20596;-88
2022/04/04 07:57:59;;;;;;;1.13;1.03;;;3.10;99.90;;;;;;4988442;28;22526;-87
2022/04/04 08:00:24;;;;;;;1.20;1.10;;;3.10;99.90;;;;;;5003720;28;20946;-87
2022/04/04 08:02:50;;;;;;;1.00;0.90;;;3.10;99.90;;;;;;5004286;28;20184;-86
2022/04/04 08:05:16;;;;;;;0.80;0.80;;;3.10;99.90;;;;;;5008078;28;20196;-86
2022/04/04 08:07:46;;;;;;;1.00;0.90;;;3.10;99.90;;;;;;5016582;28;20212;-88
2022/04/04 08:10:11;;;;;;;1.10;1.00;;;3.10;99.90;;;;;;5010100;28;20439;-85
2022/04/04 08:12:37;;;;;;;1.00;0.90;;;3.10;99.90;;;;;;5003224;28;20458;-85
2022/04/04 08:15:03;;;;;;;1.03;0.93;;;3.00;99.90;;;;;;4999272;28;20594;-85
2022/04/04 08:17:28;;;;;;;1.00;0.90;;;3.00;99.90;;;;;;5007831;28;20188;-86
2022/04/04 08:19:54;;;;;;;0.80;0.80;;;3.10;99.90;;;;;;5004031;28;20490;-86
2022/04/04 08:22:20;;;;;;;0.97;0.87;;;3.00;99.90;;;;;;5004894;28;20202;-87
2022/04/04 08:24:46;;;;;;;0.80;0.70;;;3.00;99.90;;;;;;5003328;28;20181;-87
2022/04/04 08:27:11;;;;;;;0.90;0.80;;;3.00;99.90;;;;;;5005636;28;20447;-87
2022/04/04 08:29:37;;;;;;;1.00;0.90;;;3.00;99.90;;;;;;4989417;28;20449;-87
2022/04/04 08:32:05;;;;;;;1.87;1.77;;;3.00;99.90;;;;;;5004659;28;20200;-86
2022/04/04 08:34:31;;;;;;;1.03;0.93;;;2.90;99.90;;;;;;5011134;28;21262;-86
2022/04/04 08:36:56;;;;;;;1.00;0.90;;;2.90;99.90;;;;;;5012140;28;20439;-88
2022/04/04 08:39:22;;;;;;;1.57;1.47;;;2.90;99.90;;;;;;5026033;28;20526;-88
2022/04/04 08:41:48;;;;;;;0.97;0.87;;;2.90;99.90;;;;;;5012616;28;20185;-89
2022/04/04 08:44:17;;;;;;;0.80;0.77;;;2.90;99.90;;;;;;5012114;28;20193;-89
2022/04/04 08:46:45;;;;;;;1.10;1.00;;;3.00;99.90;;;;;;5011397;28;20864;-89
2022/04/04 08:49:10;;;;;;;1.00;0.90;;;2.90;99.90;;;;;;5017317;28;20451;-87
2022/04/04 08:51:36;;;;;;;1.20;1.10;;;2.90;99.90;;;;;;5011291;28;20446;-87
2022/04/04 08:54:02;;;;;;;1.23;1.13;;;2.90;99.90;;;;;;5011283;28;20475;-87
2022/04/04 08:56:28;;;;;;;2.30;1.20;;;2.90;99.90;;;;;;5006633;28;20192;-88
2022/04/04 08:58:55;;;;;;;1.00;0.90;;;2.90;99.90;;;;;;5012981;28;20453;-87
2022/04/04 09:01:22;;;;;;;1.00;0.90;;;2.80;99.90;;;;;;5013162;28;20453;-86
2022/04/04 09:03:55;;;;;;;1.00;0.90;;;2.80;99.90;;;;;;4994345;28;20446;-86
2022/04/04 09:06:20;;;;;;;0.80;0.80;;;2.80;99.90;;;;;;5008833;28;20455;-85
2022/04/04 09:08:49;;;;;;;1.00;0.90;;;2.80;99.90;;;;;;5012841;28;20998;-86
2022/04/04 09:11:14;;;;;;;1.00;0.90;;;2.90;99.90;;;;;;4991952;28;20219;-88
2022/04/04 09:13:40;;;;;;;1.17;1.07;;;2.80;99.90;;;;;;5007747;28;20479;-86
2022/04/04 09:16:08;;;;;;;1.97;1.87;;;2.80;99.90;;;;;;5005415;28;20215;-85
2022/04/04 09:18:39;;;;;;;1.63;1.53;;;2.90;99.90;;;;;;5008365;28;20477;-84
2022/04/04 09:21:10;;;;;;;1.23;1.13;;;2.80;99.90;;;;;;5010834;28;20481;-86
2022/04/04 09:23:58;;;;;;;0.97;0.83;;;2.80;99.90;;;;;;5004584;28;20447;-85
2022/04/04 09:26:31;;;;;;;1.00;0.90;;;2.80;99.90;;;;;;4993616;28;20477;-85
2022/04/04 09:29:09;;;;;;;1.00;0.90;;;2.80;99.90;;;;;;5002739;28;20539;-85
2022/04/04 09:31:35;;;;;;;1.10;1.00;;;2.80;99.90;;;;;;4989629;28;20858;-84
2022/04/04 09:34:04;;;;;;;1.00;0.90;;;2.90;99.90;;;;;;5013235;28;20520;-84
2022/04/04 09:36:30;;;;;;;1.00;0.90;;;2.90;99.90;;;;;;5021695;28;20453;-84
2022/04/04 09:39:08;;;;;;;0.80;0.73;;;2.90;99.90;;;;;;5009445;28;20962;-81
2022/04/04 09:41:34;;;;;;;1.00;0.90;;;2.90;99.90;;;;;;5005530;28;20451;-83
2022/04/04 09:44:04;;;;;;;1.93;1.57;;;2.90;99.90;;;;;;5004404;28;20439;-85
2022/04/04 09:46:32;;;;;;;1.00;0.90;;;3.00;99.90;;;;;;5010320;28;20451;-83
2022/04/04 09:49:05;;;;;;;0.80;0.80;;;3.00;99.90;;;;;;5006607;28;20469;-83
2022/04/04 09:51:48;;;;;;;0.80;0.80;;;3.00;99.90;;;;;;5012666;28;20457;-85
2022/04/04 09:54:19;;;;;;;0.90;0.80;;;3.10;99.90;;;;;;5010132;28;20522;-82
2022/04/04 09:56:46;;;;;;;2.43;2.23;;;3.10;99.90;;;;;;5012058;28;20459;-84
2022/04/04 09:59:16;;;;;;;1.33;1.23;;;3.10;99.90;;;;;;5009052;28;20459;-82
2022/04/04 10:01:46;;;;;;;0.80;0.73;;;3.10;99.90;;;;;;4992390;28;20466;-82
2022/04/04 10:04:13;;;;;;;1.40;1.30;;;3.10;99.90;;;;;;5008446;28;20446;-82
2022/04/04 10:06:40;;;;;;;0.80;0.80;;;3.10;99.90;;;;;;5008427;28;20454;-83
2022/04/04 10:09:06;;;;;;;1.37;1.27;;;3.10;99.90;;;;;;5005502;28;20447;-82
2022/04/04 10:11:34;;;;;;;0.80;0.80;;;3.20;99.90;;;;;;4995441;28;20473;-83
2022/04/04 10:14:00;;;;;;;0.90;0.90;;;3.20;99.90;;;;;;4994855;28;20800;-82
2022/04/04 10:16:25;;;;;;;1.33;1.27;;;3.20;99.90;;;;;;5011253;28;20487;-82
2022/04/04 10:18:54;;;;;;;1.00;0.90;;;3.20;99.90;;;;;;5015498;28;20270;-83
2022/04/04 10:21:20;;;;;;;1.00;0.90;;;3.30;99.90;;;;;;5001759;28;20207;-82
2022/04/04 10:23:50;;;;;;;4.27;1.63;;;3.30;99.90;;;;;;4998668;28;20444;-85
2022/04/04 10:26:19;;;;;;;1.73;1.63;;;3.20;99.90;;;;;;5017896;28;21078;-80
2022/04/04 10:28:47;;;;;;;1.00;0.90;;;3.30;99.90;;;;;;5011784;28;20462;-80
2022/04/04 10:31:15;;;;;;;1.00;0.90;;;3.30;99.90;;;;;;5008549;28;20443;-80
2022/04/04 10:33:41;;;;;;;1.30;1.20;;;3.20;99.90;;;;;;4992067;28;20475;-82
2022/04/04 10:36:24;;;;;;;1.63;1.53;;;3.20;99.90;;;;;;4992391;28;21110;-80
2022/04/04 10:38:52;;;;;;;0.93;0.90;;;3.30;99.90;;;;;;4992275;28;20585;-80
2022/04/04 10:41:21;;;;;;;1.50;1.40;;;3.30;99.90;;;;;;4994873;28;20435;-82
2022/04/04 10:43:52;;;;;;;1.50;1.40;;;3.30;99.90;;;;;;5010631;28;20462;-81
2022/04/04 10:46:19;;;;;;;0.90;0.90;;;3.40;99.90;;;;;;5008848;28;20476;-80
2022/04/04 10:48:54;;;;;;;1.10;1.00;;;3.30;99.90;;;;;;5009438;28;20848;-80
2022/04/04 10:51:33;;;;;;;0.87;0.87;;;3.40;99.90;;;;;;5009316;28;20457;-80
2022/04/04 10:54:10;;;;;;;1.50;1.50;;;3.40;99.90;;;;;;5015521;28;20447;-81
2022/04/04 10:56:41;;;;;;;0.50;0.50;;;3.40;99.90;;;;;;5009953;28;20961;-81
2022/04/04 10:59:16;;;;;;;0.47;0.47;;;3.40;99.90;;;;;;5005240;28;20534;-82
2022/04/04 11:02:02;;;;;;;0.53;0.53;;;3.40;99.90;;;;;;5010134;28;20451;-81
2022/04/04 11:04:30;;;;;;;0.40;0.40;;;3.40;99.90;;;;;;5003157;28;20526;-81
2022/04/04 11:10:03;;;;;;;0.40;0.40;;;3.50;99.90;;;;;;5016047;28;20810;-81
2022/04/04 11:12:49;;;;;;;0.40;0.40;;;3.50;99.90;;;;;;5025883;28;20797;-79
2022/04/04 11:15:14;;;;;;;0.50;0.50;;;3.50;99.90;;;;;;5000797;28;20494;-80
2022/04/04 11:17:57;;;;;;;0.60;0.60;;;3.50;99.90;;;;;;5007054;28;22365;-79
2022/04/04 11:20:31;;;;;;;0.43;0.43;;;3.60;99.90;;;;;;5006205;28;20181;-80
2022/04/04 11:22:58;;;;;;;0.40;0.40;;;3.60;99.90;;;;;;5010754;28;20950;-80
2022/04/04 11:25:33;;;;;;;0.40;0.40;;;3.70;99.90;;;;;;5004968;28;21039;-81
2022/04/04 11:28:02;;;;;;;0.50;0.50;;;3.70;99.90;;;;;;5010924;28;20454;-82
2022/04/04 11:30:28;;;;;;;0.43;0.43;;;3.80;99.90;;;;;;5009183;28;20982;-80
2022/04/04 11:32:57;;;;;;;0.67;0.67;;;3.80;99.90;;;;;;5013901;28;20585;-81
2022/04/04 11:35:31;;;;;;;0.50;0.50;;;3.90;99.90;;;;;;5028204;28;20211;-80
2022/04/04 11:38:03;;;;;;;0.40;0.40;;;4.00;99.90;;;;;;5012151;28;20434;-80
2022/04/04 11:40:36;;;;;;;0.30;0.30;;;4.00;99.90;;;;;;5015226;28;20450;-81
2022/04/04 11:43:09;;;;;;;0.40;0.40;;;4.10;99.90;;;;;;5009649;28;20486;-81
2022/04/04 11:45:36;;;;;;;0.40;0.40;;;4.10;99.90;;;;;;5009267;28;20561;-79
2022/04/04 11:48:23;;;;;;;0.40;0.40;;;4.20;99.90;;;;;;5028322;28;20425;-80
2022/04/04 11:50:51;;;;;;;0.50;0.50;;;4.30;99.90;;;;;;5008566;28;20501;-80
2022/04/04 11:53:25;;;;;;;0.33;0.33;;;4.30;99.90;;;;;;5005835;28;21388;-79
2022/04/04 11:55:50;;;;;;;0.50;0.50;;;4.40;99.90;;;;;;5007319;28;20494;-80
2022/04/04 11:58:20;;;;;;;0.60;0.60;;;4.40;99.90;;;;;;4988375;28;20452;-79
2022/04/04 12:00:54;;;;;;;0.40;0.40;;;4.50;99.90;;;;;;5003958;28;20207;-80
2022/04/04 12:03:21;;;;;;;0.70;0.70;;;4.60;99.90;;;;;;5008733;28;20447;-80
2022/04/04 12:05:49;;;;;;;1.57;1.57;;;4.60;99.90;;;;;;5009814;28;20485;-79
2022/04/04 12:08:16;;;;;;;6.40;6.20;;;4.70;99.90;;;;;;5011472;28;20500;-79
2022/04/04 12:10:43;;;;;;;3.57;3.47;;;4.70;99.90;;;;;;4996088;28;20451;-80
2022/04/04 12:13:14;;;;;;;3.10;3.00;;;4.80;99.90;;;;;;5013101;28;20967;-79
2022/04/04 12:15:45;;;;;;;1.87;1.77;;;4.80;99.90;;;;;;4994907;28;21076;-79
2022/04/04 12:18:12;;;;;;;2.47;2.37;;;4.90;99.90;;;;;;5013275;28;20442;-79
2022/04/04 12:20:40;;;;;;;0.93;0.93;;;4.90;99.90;;;;;;5013785;28;20500;-79
2022/04/04 12:25:54;;;;;;;4.37;4.17;;;5.00;99.90;;;;;;5012457;28;20472;-78
2022/04/04 12:28:25;;;;;;;4.93;4.73;;;5.10;99.90;;;;;;5007558;28;20538;-79
2022/04/04 12:30:52;;;;;;;1.17;1.07;;;5.10;99.90;;;;;;5009992;28;20438;-80
2022/04/04 12:33:18;;;;;;;0.80;0.80;;;5.10;99.90;;;;;;5016210;28;20499;-80
2022/04/04 12:35:46;;;;;;;0.80;0.80;;;5.20;99.90;;;;;;4991625;28;20888;-79
2022/04/04 12:38:37;;;;;;;0.80;0.80;;;5.20;99.90;;;;;;5012632;28;20537;-78
2022/04/04 12:41:16;;;;;;;0.80;0.80;;;5.20;99.90;;;;;;4997421;28;20459;-78
2022/04/04 12:43:44;;;;;;;0.60;0.60;;;5.30;99.90;;;;;;5009294;28;20443;-78
2022/04/04 12:46:42;;;;;;;0.40;0.40;;;5.30;99.90;;;;;;5006186;28;20798;-78
2022/04/04 12:49:10;;;;;;;0.30;0.30;;;5.30;99.90;;;;;;4961542;28;20446;-79
2022/04/04 12:51:38;;;;;;;2.13;2.13;;;5.40;99.90;;;;;;5008785;28;20439;-80
2022/04/04 12:54:03;;;;;;;1.93;1.93;;;5.40;99.90;;;;;;5004777;28;20981;-78
2022/04/04 12:56:32;;;;;;;4.90;4.80;;;5.40;99.90;;;;;;5008700;28;20483;-78
2022/04/04 12:59:06;;;;;;;5.93;5.73;;;5.50;99.90;;;;;;5007428;28;20552;-79
2022/04/04 13:01:32;;;;;;;0.50;0.50;;;5.50;99.90;;;;;;4993592;28;20463;-78
2022/04/04 13:03:58;;;;;;;4.40;4.30;;;5.50;99.90;;;;;;5013107;28;20441;-78
2022/04/04 13:06:28;;;;;;;3.30;3.20;;;5.50;99.90;;;;;;5012487;28;20450;-79
2022/04/04 13:09:02;;;;;;;2.37;2.37;;;5.60;99.90;;;;;;4992891;28;20954;-79
2022/04/04 13:11:32;;;;;;;1.40;1.40;;;5.60;99.90;;;;;;5013495;28;20797;-78